sensor_id;sensor_type;location;lat;lon;timestamp;pressure;altitude;pressure_sealevel;temperature;humidity
16255;BME280;8235;52.198;9.904;2023-02-22T00:01:08;100904.97;;;8.83;96.82
16255;BME280;8235;52.198;9.904;2023-02-22T00:03:47;100898.88;;;8.81;96.91
16255;BME280;8235;52.198;9.904;2023-02-22T00:06:17;100898.03;;;8.81;96.53
16255;BME280;8235;52.198;9.904;2023-02-22T00:08:46;100894.50;;;8.80;96.94
16255;BME280;8235;52.198;9.904;2023-02-22T00:11:12;100906.06;;;8.79;97.07
16255;BME280;8235;52.198;9.904;2023-02-22T00:13:39;100898.09;;;8.79;97.16
16255;BME280;8235;52.198;9.904;2023-02-22T00:16:08;100899.03;;;8.78;97.54
16255;BME280;8235;52.198;9.904;2023-02-22T00:18:37;100892.03;;;8.77;97.68
16255;BME280;8235;52.198;9.904;2023-02-22T00:21:04;100894.69;;;8.77;97.67
16255;BME280;8235;52.198;9.904;2023-02-22T00:23:39;100888.59;;;8.75;98.00
16255;BME280;8235;52.198;9.904;2023-02-22T00:26:07;100894.75;;;8.76;97.82
16255;BME280;8235;52.198;9.904;2023-02-22T00:28:35;100894.84;;;8.74;97.71
16255;BME280;8235;52.198;9.904;2023-02-22T00:31:02;100896.63;;;8.74;98.12
16255;BME280;8235;52.198;9.904;2023-02-22T00:33:29;100893.13;;;8.73;97.88
16255;BME280;8235;52.198;9.904;2023-02-22T00:35:56;100888.75;;;8.72;97.97
16255;BME280;8235;52.198;9.904;2023-02-22T00:38:22;100887.81;;;8.73;97.48
16255;BME280;8235;52.198;9.904;2023-02-22T00:40:50;100890.47;;;8.73;98.18
16255;BME280;8235;52.198;9.904;2023-02-22T00:43:17;100881.66;;;8.73;98.08
16255;BME280;8235;52.198;9.904;2023-02-22T00:45:43;100874.53;;;8.73;98.06
16255;BME280;8235;52.198;9.904;2023-02-22T00:48:10;100875.41;;;8.74;97.62
16255;BME280;8235;52.198;9.904;2023-02-22T00:50:37;100875.41;;;8.74;97.78
16255;BME280;8235;52.198;9.904;2023-02-22T00:53:05;100868.28;;;8.74;97.80
16255;BME280;8235;52.198;9.904;2023-02-22T00:55:36;100875.41;;;8.74;97.64
16255;BME280;8235;52.198;9.904;2023-02-22T00:58:04;100863.06;;;8.73;97.99
16255;BME280;8235;52.198;9.904;2023-02-22T01:00:33;100867.50;;;8.72;97.91
16255;BME280;8235;52.198;9.904;2023-02-22T01:03:00;100862.28;;;8.70;98.25
16255;BME280;8235;52.198;9.904;2023-02-22T01:05:28;100858.75;;;8.70;98.02
16255;BME280;8235;52.198;9.904;2023-02-22T01:07:56;100864.94;;;8.70;98.26
16255;BME280;8235;52.198;9.904;2023-02-22T01:10:26;100855.25;;;8.69;98.18
16255;BME280;8235;52.198;9.904;2023-02-22T01:12:55;100860.63;;;8.68;97.76
16255;BME280;8235;52.198;9.904;2023-02-22T01:15:25;100853.59;;;8.67;97.96
16255;BME280;8235;52.198;9.904;2023-02-22T01:17:53;100851.03;;;8.65;97.57
16255;BME280;8235;52.198;9.904;2023-02-22T01:20:21;100850.16;;;8.65;98.26
16255;BME280;8235;52.198;9.904;2023-02-22T01:22:49;100843.22;;;8.62;98.17
16255;BME280;8235;52.198;9.904;2023-02-22T01:25:19;100842.34;;;8.62;98.26
16255;BME280;8235;52.198;9.904;2023-02-22T01:27:46;100842.34;;;8.62;97.80
16255;BME280;8235;52.198;9.904;2023-02-22T01:30:15;100840.63;;;8.61;98.09
16255;BME280;8235;52.198;9.904;2023-02-22T01:32:43;100845.19;;;8.59;97.62
16255;BME280;8235;52.198;9.904;2023-02-22T01:35:13;100840.97;;;8.55;97.29
16255;BME280;8235;52.198;9.904;2023-02-22T01:37:40;100833.94;;;8.54;97.62
16255;BME280;8235;52.198;9.904;2023-02-22T01:40:10;100837.63;;;8.51;97.47
16255;BME280;8235;52.198;9.904;2023-02-22T01:42:40;100833.31;;;8.49;97.70
16255;BME280;8235;52.198;9.904;2023-02-22T01:45:41;100830.81;;;8.46;97.57
16255;BME280;8235;52.198;9.904;2023-02-22T01:48:15;100825.66;;;8.43;96.82
16255;BME280;8235;52.198;9.904;2023-02-22T01:50:46;100818.75;;;8.40;96.53
16255;BME280;8235;52.198;9.904;2023-02-22T01:53:15;100818.03;;;8.37;97.24
16255;BME280;8235;52.198;9.904;2023-02-22T01:55:43;100823.56;;;8.32;97.29
16255;BME280;8235;52.198;9.904;2023-02-22T01:58:11;100816.59;;;8.29;97.25
16255;BME280;8235;52.198;9.904;2023-02-22T02:00:39;100818.47;;;8.27;96.81
16255;BME280;8235;52.198;9.904;2023-02-22T02:03:08;100809.81;;;8.24;96.51
16255;BME280;8235;52.198;9.904;2023-02-22T02:05:37;100818.78;;;8.21;96.41
16255;BME280;8235;52.198;9.904;2023-02-22T02:08:09;100812.78;;;8.18;96.34
16255;BME280;8235;52.198;9.904;2023-02-22T02:10:39;100815.59;;;8.15;96.82
16255;BME280;8235;52.198;9.904;2023-02-22T02:13:07;100814.94;;;8.10;96.32
16255;BME280;8235;52.198;9.904;2023-02-22T02:15:34;100821.44;;;8.04;95.93
16255;BME280;8235;52.198;9.904;2023-02-22T02:18:04;100813.00;;;7.96;94.90
16255;BME280;8235;52.198;9.904;2023-02-22T02:20:37;100813.38;;;7.88;94.91
16255;BME280;8235;52.198;9.904;2023-02-22T02:23:16;100814.63;;;7.81;95.16
16255;BME280;8235;52.198;9.904;2023-02-22T02:26:23;100811.31;;;7.76;95.32
16255;BME280;8235;52.198;9.904;2023-02-22T02:32:20;100808.91;;;7.72;95.55
16255;BME280;8235;52.198;9.904;2023-02-22T02:34:49;100800.19;;;7.70;95.64
16255;BME280;8235;52.198;9.904;2023-02-22T02:37:23;100806.41;;;7.69;96.39
16255;BME280;8235;52.198;9.904;2023-02-22T02:40:00;100803.91;;;7.65;96.13
16255;BME280;8235;52.198;9.904;2023-02-22T02:42:33;100796.97;;;7.63;95.88
16255;BME280;8235;52.198;9.904;2023-02-22T02:45:07;100790.16;;;7.57;95.40
16255;BME280;8235;52.198;9.904;2023-02-22T02:47:39;100778.31;;;7.47;94.38
16255;BME280;8235;52.198;9.904;2023-02-22T02:50:09;100790.25;;;7.37;93.14
16255;BME280;8235;52.198;9.904;2023-02-22T02:52:38;100791.78;;;7.24;93.14
16255;BME280;8235;52.198;9.904;2023-02-22T02:55:07;100783.34;;;7.16;93.41
16255;BME280;8235;52.198;9.904;2023-02-22T02:57:35;100791.50;;;7.11;93.51
16255;BME280;8235;52.198;9.904;2023-02-22T03:00:05;100787.22;;;7.09;93.33
16255;BME280;8235;52.198;9.904;2023-02-22T03:02:54;100789.94;;;7.07;94.25
16255;BME280;8235;52.198;9.904;2023-02-22T03:05:36;100782.91;;;7.06;94.64
16255;BME280;8235;52.198;9.904;2023-02-22T03:08:12;100777.81;;;7.02;94.16
16255;BME280;8235;52.198;9.904;2023-02-22T03:10:48;100784.50;;;6.91;93.51
16255;BME280;8235;52.198;9.904;2023-02-22T03:13:27;100777.97;;;6.80;92.87
16255;BME280;8235;52.198;9.904;2023-02-22T03:16:01;100768.78;;;6.68;92.17
16255;BME280;8235;52.198;9.904;2023-02-22T03:18:39;100775.31;;;6.61;92.83
16255;BME280;8235;52.198;9.904;2023-02-22T03:21:16;100779.94;;;6.56;93.20
16255;BME280;8235;52.198;9.904;2023-02-22T03:23:50;100766.25;;;6.46;92.79
16255;BME280;8235;52.198;9.904;2023-02-22T03:26:25;100772.63;;;6.42;93.63
16255;BME280;8235;52.198;9.904;2023-02-22T03:28:54;100764.88;;;6.38;93.75
16255;BME280;8235;52.198;9.904;2023-02-22T03:31:25;100767.59;;;6.36;94.93
16255;BME280;8235;52.198;9.904;2023-02-22T03:33:56;100761.38;;;6.37;95.17
16255;BME280;8235;52.198;9.904;2023-02-22T03:36:28;100750.72;;;6.39;96.03
16255;BME280;8235;52.198;9.904;2023-02-22T03:38:57;100753.19;;;6.43;96.99
16255;BME280;8235;52.198;9.904;2023-02-22T03:41:25;100750.22;;;6.49;96.69
16255;BME280;8235;52.198;9.904;2023-02-22T03:43:56;100754.41;;;6.55;97.72
16255;BME280;8235;52.198;9.904;2023-02-22T03:46:26;100744.53;;;6.58;97.72
16255;BME280;8235;52.198;9.904;2023-02-22T03:48:59;100754.06;;;6.63;98.89
16255;BME280;8235;52.198;9.904;2023-02-22T03:51:27;100752.13;;;6.66;98.95
16255;BME280;8235;52.198;9.904;2023-02-22T03:53:55;100757.28;;;6.69;99.72
16255;BME280;8235;52.198;9.904;2023-02-22T03:56:24;100748.28;;;6.73;99.78
16255;BME280;8235;52.198;9.904;2023-02-22T03:59:00;100750.72;;;6.78;100.00
16255;BME280;8235;52.198;9.904;2023-02-22T04:01:27;100741.59;;;6.83;100.00
16255;BME280;8235;52.198;9.904;2023-02-22T04:03:53;100736.19;;;6.86;100.00
16255;BME280;8235;52.198;9.904;2023-02-22T04:06:21;100740.28;;;6.93;100.00
16255;BME280;8235;52.198;9.904;2023-02-22T04:08:48;100740.13;;;6.96;100.00
16255;BME280;8235;52.198;9.904;2023-02-22T04:11:14;100740.75;;;7.02;100.00
16255;BME280;8235;52.198;9.904;2023-02-22T04:13:40;100744.03;;;7.07;100.00
16255;BME280;8235;52.198;9.904;2023-02-22T04:16:07;100734.25;;;7.09;100.00
16255;BME280;8235;52.198;9.904;2023-02-22T04:18:33;100733.25;;;7.11;100.00
16255;BME280;8235;52.198;9.904;2023-02-22T04:21:00;100739.25;;;7.15;100.00
16255;BME280;8235;52.198;9.904;2023-02-22T04:23:28;100735.69;;;7.16;100.00
16255;BME280;8235;52.198;9.904;2023-02-22T04:25:55;100731.13;;;7.18;100.00
16255;BME280;8235;52.198;9.904;2023-02-22T04:28:21;100732.84;;;7.19;100.00
16255;BME280;8235;52.198;9.904;2023-02-22T04:30:48;100735.50;;;7.19;100.00
16255;BME280;8235;52.198;9.904;2023-02-22T04:33:14;100728.41;;;7.19;100.00
16255;BME280;8235;52.198;9.904;2023-02-22T04:35:41;100731.06;;;7.19;100.00
16255;BME280;8235;52.198;9.904;2023-02-22T04:38:07;100730.22;;;7.19;100.00
16255;BME280;8235;52.198;9.904;2023-02-22T04:40:36;100735.50;;;7.19;100.00
16255;BME280;8235;52.198;9.904;2023-02-22T04:43:03;100728.50;;;7.18;100.00
16255;BME280;8235;52.198;9.904;2023-02-22T04:45:29;100730.28;;;7.17;100.00
16255;BME280;8235;52.198;9.904;2023-02-22T04:47:56;100724.97;;;7.17;100.00
16255;BME280;8235;52.198;9.904;2023-02-22T04:50:22;100723.38;;;7.15;100.00
16255;BME280;8235;52.198;9.904;2023-02-22T04:52:49;100726.00;;;7.15;100.00
16255;BME280;8235;52.198;9.904;2023-02-22T04:55:16;100729.53;;;7.15;100.00
16255;BME280;8235;52.198;9.904;2023-02-22T04:57:44;100721.66;;;7.14;100.00
16255;BME280;8235;52.198;9.904;2023-02-22T05:00:15;100722.59;;;7.13;100.00
16255;BME280;8235;52.198;9.904;2023-02-22T05:02:42;100728.81;;;7.12;100.00
16255;BME280;8235;52.198;9.904;2023-02-22T05:05:08;100728.81;;;7.12;100.00
16255;BME280;8235;52.198;9.904;2023-02-22T05:07:35;100727.09;;;7.11;100.00
16255;BME280;8235;52.198;9.904;2023-02-22T05:10:01;100726.22;;;7.10;100.00
16255;BME280;8235;52.198;9.904;2023-02-22T05:12:28;100731.53;;;7.10;100.00
16255;BME280;8235;52.198;9.904;2023-02-22T05:14:56;100730.66;;;7.10;100.00
16255;BME280;8235;52.198;9.904;2023-02-22T05:17:22;100731.53;;;7.10;100.00
16255;BME280;8235;52.198;9.904;2023-02-22T05:19:49;100722.72;;;7.10;100.00
16255;BME280;8235;52.198;9.904;2023-02-22T05:22:15;100725.38;;;7.10;100.00
16255;BME280;8235;52.198;9.904;2023-02-22T05:24:42;100723.59;;;7.10;100.00
16255;BME280;8235;52.198;9.904;2023-02-22T05:27:08;100726.22;;;7.10;100.00
16255;BME280;8235;52.198;9.904;2023-02-22T05:29:36;100718.28;;;7.10;100.00
16255;BME280;8235;52.198;9.904;2023-02-22T05:32:04;100726.16;;;7.12;100.00
16255;BME280;8235;52.198;9.904;2023-02-22T05:34:31;100717.34;;;7.11;100.00
16255;BME280;8235;52.198;9.904;2023-02-22T05:36:58;100718.28;;;7.10;100.00
16255;BME280;8235;52.198;9.904;2023-02-22T05:39:24;100719.34;;;7.06;100.00
16255;BME280;8235;52.198;9.904;2023-02-22T05:41:51;100710.63;;;7.04;100.00
16255;BME280;8235;52.198;9.904;2023-02-22T05:44:17;100711.69;;;7.00;100.00
16255;BME280;8235;52.198;9.904;2023-02-22T05:46:44;100718.03;;;6.97;100.00
16255;BME280;8235;52.198;9.904;2023-02-22T05:49:11;100713.72;;;6.95;100.00
16255;BME280;8235;52.198;9.904;2023-02-22T05:51:38;100713.94;;;6.90;100.00
16255;BME280;8235;52.198;9.904;2023-02-22T05:54:04;100719.22;;;6.90;100.00
16255;BME280;8235;52.198;9.904;2023-02-22T05:56:31;100714.84;;;6.89;100.00
16255;BME280;8235;52.198;9.904;2023-02-22T05:58:58;100711.41;;;6.87;100.00
16255;BME280;8235;52.198;9.904;2023-02-22T06:01:25;100711.50;;;6.86;100.00
16255;BME280;8235;52.198;9.904;2023-02-22T06:03:51;100710.63;;;6.85;100.00
16255;BME280;8235;52.198;9.904;2023-02-22T06:06:19;100705.41;;;6.84;100.00
16255;BME280;8235;52.198;9.904;2023-02-22T06:08:46;100708.00;;;6.85;100.00
16255;BME280;8235;52.198;9.904;2023-02-22T06:11:13;100703.63;;;6.84;100.00
16255;BME280;8235;52.198;9.904;2023-02-22T06:13:39;100705.34;;;6.85;100.00
16255;BME280;8235;52.198;9.904;2023-02-22T06:16:06;100701.75;;;6.86;100.00
16255;BME280;8235;52.198;9.904;2023-02-22T06:18:32;100702.56;;;6.88;100.00
16255;BME280;8235;52.198;9.904;2023-02-22T06:20:59;100705.13;;;6.90;100.00
16255;BME280;8235;52.198;9.904;2023-02-22T06:23:27;100709.50;;;6.91;100.00
16255;BME280;8235;52.198;9.904;2023-02-22T06:25:54;100703.19;;;6.93;100.00
16255;BME280;8235;52.198;9.904;2023-02-22T06:28:20;100694.31;;;6.94;100.00
16255;BME280;8235;52.198;9.904;2023-02-22T06:30:47;100698.69;;;6.95;100.00
16255;BME280;8235;52.198;9.904;2023-02-22T06:33:14;100697.84;;;6.95;100.00
16255;BME280;8235;52.198;9.904;2023-02-22T06:35:40;100699.63;;;6.94;100.00
16255;BME280;8235;52.198;9.904;2023-02-22T06:38:07;100694.25;;;6.96;100.00
16255;BME280;8235;52.198;9.904;2023-02-22T06:40:35;100694.31;;;6.94;100.00
16255;BME280;8235;52.198;9.904;2023-02-22T06:43:01;100703.13;;;6.95;100.00
16255;BME280;8235;52.198;9.904;2023-02-22T06:45:28;100698.84;;;6.92;100.00
16255;BME280;8235;52.198;9.904;2023-02-22T06:47:54;100700.75;;;6.89;100.00
16255;BME280;8235;52.198;9.904;2023-02-22T06:50:22;100696.53;;;6.85;100.00
16255;BME280;8235;52.198;9.904;2023-02-22T06:52:49;100699.44;;;6.80;100.00
16255;BME280;8235;52.198;9.904;2023-02-22T06:55:17;100700.34;;;6.79;100.00
16255;BME280;8235;52.198;9.904;2023-02-22T06:57:45;100700.41;;;6.78;100.00
16255;BME280;8235;52.198;9.904;2023-02-22T07:00:14;100702.22;;;6.77;100.00
16255;BME280;8235;52.198;9.904;2023-02-22T07:02:41;100708.44;;;6.76;100.00
16255;BME280;8235;52.198;9.904;2023-02-22T07:05:09;100701.50;;;6.74;100.00
16255;BME280;8235;52.198;9.904;2023-02-22T07:07:36;100706.00;;;6.72;100.00
16255;BME280;8235;52.198;9.904;2023-02-22T07:10:04;100708.72;;;6.70;100.00
16255;BME280;8235;52.198;9.904;2023-02-22T07:12:32;100703.41;;;6.70;100.00
16255;BME280;8235;52.198;9.904;2023-02-22T07:15:00;100700.75;;;6.70;100.00
16255;BME280;8235;52.198;9.904;2023-02-22T07:17:26;100714.94;;;6.69;100.00
16255;BME280;8235;52.198;9.904;2023-02-22T07:19:53;100711.34;;;6.70;100.00
16255;BME280;8235;52.198;9.904;2023-02-22T07:22:19;100713.94;;;6.72;100.00
16255;BME280;8235;52.198;9.904;2023-02-22T07:24:46;100714.78;;;6.72;100.00
16255;BME280;8235;52.198;9.904;2023-02-22T07:27:12;100709.34;;;6.75;100.00
16255;BME280;8235;52.198;9.904;2023-02-22T07:29:41;100708.44;;;6.76;100.00
16255;BME280;8235;52.198;9.904;2023-02-22T07:32:09;100705.66;;;6.79;100.00
16255;BME280;8235;52.198;9.904;2023-02-22T07:34:35;100707.38;;;6.80;100.00
16255;BME280;8235;52.198;9.904;2023-02-22T07:37:02;100712.50;;;6.83;100.00
16255;BME280;8235;52.198;9.904;2023-02-22T07:39:28;100718.50;;;6.87;100.00
16255;BME280;8235;52.198;9.904;2023-02-22T07:41:55;100707.84;;;6.88;100.00
16255;BME280;8235;52.198;9.904;2023-02-22T07:44:21;100713.06;;;6.90;100.00
16255;BME280;8235;52.198;9.904;2023-02-22T07:46:48;100705.91;;;6.92;100.00
16255;BME280;8235;52.198;9.904;2023-02-22T07:49:16;100705.84;;;6.93;100.00
16255;BME280;8235;52.198;9.904;2023-02-22T07:51:43;100708.34;;;6.96;100.00
16255;BME280;8235;52.198;9.904;2023-02-22T07:54:10;100707.31;;;6.99;100.00
16255;BME280;8235;52.198;9.904;2023-02-22T07:56:42;100708.03;;;7.03;100.00
16255;BME280;8235;52.198;9.904;2023-02-22T07:59:09;100703.41;;;7.08;100.00
16255;BME280;8235;52.198;9.904;2023-02-22T08:01:36;100708.41;;;7.14;100.00
16255;BME280;8235;52.198;9.904;2023-02-22T08:04:02;100695.84;;;7.17;100.00
16255;BME280;8235;52.198;9.904;2023-02-22T08:06:30;100700.06;;;7.21;100.00
16255;BME280;8235;52.198;9.904;2023-02-22T08:08:57;100696.28;;;7.27;100.00
16255;BME280;8235;52.198;9.904;2023-02-22T08:11:23;100694.09;;;7.35;100.00
16255;BME280;8235;52.198;9.904;2023-02-22T08:13:50;100688.34;;;7.44;100.00
16255;BME280;8235;52.198;9.904;2023-02-22T08:16:16;100694.91;;;7.54;100.00
16255;BME280;8235;52.198;9.904;2023-02-22T08:18:43;100691.66;;;7.66;100.00
16255;BME280;8235;52.198;9.904;2023-02-22T08:21:09;100691.09;;;7.77;100.00
16255;BME280;8235;52.198;9.904;2023-02-22T08:23:37;100683.44;;;7.88;100.00
16255;BME280;8235;52.198;9.904;2023-02-22T08:26:05;100687.34;;;7.98;100.00
16255;BME280;8235;52.198;9.904;2023-02-22T08:28:31;100686.75;;;8.09;100.00
16255;BME280;8235;52.198;9.904;2023-02-22T08:30:58;100686.13;;;8.21;100.00
16255;BME280;8235;52.198;9.904;2023-02-22T08:33:24;100685.50;;;8.33;100.00
16255;BME280;8235;52.198;9.904;2023-02-22T08:35:51;100677.75;;;8.46;100.00
16255;BME280;8235;52.198;9.904;2023-02-22T08:38:20;100684.00;;;8.61;100.00
16255;BME280;8235;52.198;9.904;2023-02-22T08:40:48;100679.91;;;8.71;100.00
16255;BME280;8235;52.198;9.904;2023-02-22T08:43:15;100674.00;;;8.82;100.00
16255;BME280;8235;52.198;9.904;2023-02-22T08:45:43;100677.97;;;8.90;100.00
16255;BME280;8235;52.198;9.904;2023-02-22T08:48:10;100677.44;;;8.99;100.00
16255;BME280;8235;52.198;9.904;2023-02-22T08:50:38;100675.22;;;9.08;100.00
16255;BME280;8235;52.198;9.904;2023-02-22T08:53:06;100670.31;;;9.16;100.00
16255;BME280;8235;52.198;9.904;2023-02-22T08:55:35;100673.22;;;9.27;100.00
16255;BME280;8235;52.198;9.904;2023-02-22T08:58:04;100676.09;;;9.38;100.00
16255;BME280;8235;52.198;9.904;2023-02-22T09:00:34;100663.78;;;9.51;100.00
16255;BME280;8235;52.198;9.904;2023-02-22T09:03:01;100660.53;;;9.62;100.00
16255;BME280;8235;52.198;9.904;2023-02-22T09:05:28;100657.13;;;9.74;100.00
16255;BME280;8235;52.198;9.904;2023-02-22T09:07:55;100664.28;;;9.88;100.00
16255;BME280;8235;52.198;9.904;2023-02-22T09:10:23;100656.59;;;9.97;100.00
16255;BME280;8235;52.198;9.904;2023-02-22T09:12:51;100652.34;;;10.09;100.00
16255;BME280;8235;52.198;9.904;2023-02-22T09:15:21;100655.41;;;10.17;100.00
16255;BME280;8235;52.198;9.904;2023-02-22T09:17:48;100651.31;;;10.26;99.71
16255;BME280;8235;52.198;9.904;2023-02-22T09:20:17;100653.53;;;10.33;98.96
16255;BME280;8235;52.198;9.904;2023-02-22T09:22:44;100651.22;;;10.41;97.65
16255;BME280;8235;52.198;9.904;2023-02-22T09:25:11;100641.25;;;10.45;96.63
16255;BME280;8235;52.198;9.904;2023-02-22T09:27:38;100646.97;;;10.53;95.79
16255;BME280;8235;52.198;9.904;2023-02-22T09:30:06;100649.31;;;10.58;94.84
16255;BME280;8235;52.198;9.904;2023-02-22T09:32:37;100642.75;;;10.63;94.16
16255;BME280;8235;52.198;9.904;2023-02-22T09:35:04;100639.78;;;10.68;93.44
16255;BME280;8235;52.198;9.904;2023-02-22T09:37:32;100633.41;;;10.70;92.77
16255;BME280;8235;52.198;9.904;2023-02-22T09:39:59;100638.75;;;10.70;91.84
16255;BME280;8235;52.198;9.904;2023-02-22T09:42:27;100640.28;;;10.74;91.55
16255;BME280;8235;52.198;9.904;2023-02-22T09:45:02;100641.00;;;10.76;91.05
16255;BME280;8235;52.198;9.904;2023-02-22T09:47:40;100635.38;;;10.81;90.67
16255;BME280;8235;52.198;9.904;2023-02-22T09:50:12;100637.00;;;10.84;90.54
16255;BME280;8235;52.198;9.904;2023-02-22T09:52:48;100628.72;;;10.88;90.13
16255;BME280;8235;52.198;9.904;2023-02-22T09:55:26;100628.38;;;10.93;90.18
16255;BME280;8235;52.198;9.904;2023-02-22T09:57:57;100625.34;;;10.99;89.79
16255;BME280;8235;52.198;9.904;2023-02-22T10:00:28;100630.38;;;11.03;89.52
16255;BME280;8235;52.198;9.904;2023-02-22T10:03:11;100633.59;;;11.08;89.21
16255;BME280;8235;52.198;9.904;2023-02-22T10:05:46;100628.03;;;11.11;88.74
16255;BME280;8235;52.198;9.904;2023-02-22T10:08:16;100625.94;;;11.17;88.36
16255;BME280;8235;52.198;9.904;2023-02-22T10:10:45;100628.41;;;11.20;87.99
16255;BME280;8235;52.198;9.904;2023-02-22T10:13:24;100621.91;;;11.24;87.90
16255;BME280;8235;52.198;9.904;2023-02-22T10:15:55;100622.56;;;11.27;87.65
16255;BME280;8235;52.198;9.904;2023-02-22T10:18:50;100626.63;;;11.33;87.31
16255;BME280;8235;52.198;9.904;2023-02-22T10:21:51;100622.69;;;11.38;87.17
16255;BME280;8235;52.198;9.904;2023-02-22T10:24:31;100615.16;;;11.45;86.61
16255;BME280;8235;52.198;9.904;2023-02-22T10:27:03;100615.69;;;11.50;86.38
16255;BME280;8235;52.198;9.904;2023-02-22T10:29:35;100617.09;;;11.56;85.86
16255;BME280;8235;52.198;9.904;2023-02-22T10:32:05;100608.78;;;11.60;85.84
16255;BME280;8235;52.198;9.904;2023-02-22T10:34:38;100610.28;;;11.64;85.22
16255;BME280;8235;52.198;9.904;2023-02-22T10:37:15;100612.63;;;11.69;84.92
16255;BME280;8235;52.198;9.904;2023-02-22T10:39:46;100603.56;;;11.71;84.59
16255;BME280;8235;52.198;9.904;2023-02-22T10:42:13;100606.50;;;11.81;85.00
16255;BME280;8235;52.198;9.904;2023-02-22T10:44:40;100601.47;;;11.89;85.39
16255;BME280;8235;52.198;9.904;2023-02-22T10:47:09;100592.81;;;11.98;84.97
16255;BME280;8235;52.198;9.904;2023-02-22T10:49:41;100587.88;;;12.05;84.34
16255;BME280;8235;52.198;9.904;2023-02-22T10:52:12;100579.56;;;12.09;83.25
16255;BME280;8235;52.198;9.904;2023-02-22T10:54:41;100584.59;;;12.14;82.99
16255;BME280;8235;52.198;9.904;2023-02-22T10:57:11;100578.28;;;12.15;82.02
16255;BME280;8235;52.198;9.904;2023-02-22T10:59:39;100575.50;;;12.16;82.02
16255;BME280;8235;52.198;9.904;2023-02-22T11:02:17;100571.63;;;12.21;81.86
16255;BME280;8235;52.198;9.904;2023-02-22T11:04:48;100574.09;;;12.24;81.36
16255;BME280;8235;52.198;9.904;2023-02-22T11:07:21;100574.72;;;12.27;81.79
16255;BME280;8235;52.198;9.904;2023-02-22T11:09:52;100567.16;;;12.34;81.20
16255;BME280;8235;52.198;9.904;2023-02-22T11:12:25;100561.44;;;12.38;80.59
16255;BME280;8235;52.198;9.904;2023-02-22T11:14:52;100561.00;;;12.44;80.65
16255;BME280;8235;52.198;9.904;2023-02-22T11:17:29;100563.25;;;12.50;80.70
16255;BME280;8235;52.198;9.904;2023-02-22T11:19:58;100553.81;;;12.58;80.40
16255;BME280;8235;52.198;9.904;2023-02-22T11:22:27;100554.44;;;12.61;79.70
16255;BME280;8235;52.198;9.904;2023-02-22T11:24:56;100556.56;;;12.69;79.13
16255;BME280;8235;52.198;9.904;2023-02-22T11:27:31;100547.34;;;12.73;78.96
16255;BME280;8235;52.198;9.904;2023-02-22T11:30:17;100546.88;;;12.79;78.24
16255;BME280;8235;52.198;9.904;2023-02-22T11:32:47;100542.28;;;12.81;78.35
16255;BME280;8235;52.198;9.904;2023-02-22T11:35:35;100537.47;;;12.86;77.83
16255;BME280;8235;52.198;9.904;2023-02-22T11:38:12;100530.91;;;12.90;77.99
16255;BME280;8235;52.198;9.904;2023-02-22T11:40:41;100533.34;;;12.93;77.25
16255;BME280;8235;52.198;9.904;2023-02-22T11:43:13;100526.81;;;12.97;77.39
16255;BME280;8235;52.198;9.904;2023-02-22T11:45:55;100523.78;;;13.02;77.10
16255;BME280;8235;52.198;9.904;2023-02-22T11:48:25;100527.09;;;13.05;76.24
16255;BME280;8235;52.198;9.904;2023-02-22T11:51:00;100518.97;;;13.07;76.36
16255;BME280;8235;52.198;9.904;2023-02-22T11:53:42;100515.06;;;13.11;75.87
16255;BME280;8235;52.198;9.904;2023-02-22T11:56:15;100510.34;;;13.14;75.72
16255;BME280;8235;52.198;9.904;2023-02-22T11:58:47;100505.66;;;13.18;75.51
16255;BME280;8235;52.198;9.904;2023-02-22T12:01:22;100506.28;;;13.22;75.35
16255;BME280;8235;52.198;9.904;2023-02-22T12:06:50;100501.06;;;13.31;75.33
16255;BME280;8235;52.198;9.904;2023-02-22T12:09:25;100498.16;;;13.34;74.91
16255;BME280;8235;52.198;9.904;2023-02-22T12:12:06;100496.09;;;13.38;74.92
16255;BME280;8235;52.198;9.904;2023-02-22T12:14:41;100493.19;;;13.41;74.13
16255;BME280;8235;52.198;9.904;2023-02-22T12:17:17;100491.25;;;13.43;74.03
16255;BME280;8235;52.198;9.904;2023-02-22T12:19:49;100485.53;;;13.47;73.76
16255;BME280;8235;52.198;9.904;2023-02-22T12:22:23;100481.88;;;13.48;73.63
16255;BME280;8235;52.198;9.904;2023-02-22T12:24:55;100485.91;;;13.54;73.95
16255;BME280;8235;52.198;9.904;2023-02-22T12:27:26;100482.75;;;13.60;74.01
16255;BME280;8235;52.198;9.904;2023-02-22T12:29:58;100478.25;;;13.61;73.37
16255;BME280;8235;52.198;9.904;2023-02-22T12:32:32;100473.50;;;13.64;73.49
16255;BME280;8235;52.198;9.904;2023-02-22T12:35:07;100476.78;;;13.68;73.17
16255;BME280;8235;52.198;9.904;2023-02-22T12:37:52;100477.41;;;13.71;73.04
16255;BME280;8235;52.198;9.904;2023-02-22T12:40:26;100469.13;;;13.74;71.95
16255;BME280;8235;52.198;9.904;2023-02-22T12:42:59;100478.47;;;13.80;72.32
16255;BME280;8235;52.198;9.904;2023-02-22T12:45:33;100472.78;;;13.84;72.01
16255;BME280;8235;52.198;9.904;2023-02-22T12:48:14;100470.59;;;13.89;71.92
16255;BME280;8235;52.198;9.904;2023-02-22T12:50:46;100466.69;;;13.94;71.51
16255;BME280;8235;52.198;9.904;2023-02-22T12:53:19;100458.44;;;13.97;71.77
16255;BME280;8235;52.198;9.904;2023-02-22T12:55:50;100457.91;;;14.03;71.75
16255;BME280;8235;52.198;9.904;2023-02-22T12:58:24;100462.06;;;14.07;71.46
16255;BME280;8235;52.198;9.904;2023-02-22T13:00:58;100457.31;;;14.10;71.46
16255;BME280;8235;52.198;9.904;2023-02-22T13:03:30;100462.41;;;14.13;70.86
16255;BME280;8235;52.198;9.904;2023-02-22T13:06:10;100459.47;;;14.16;70.93
16255;BME280;8235;52.198;9.904;2023-02-22T13:08:47;100453.97;;;14.18;70.71
16255;BME280;8235;52.198;9.904;2023-02-22T13:11:21;100452.03;;;14.20;70.38
16255;BME280;8235;52.198;9.904;2023-02-22T13:14:02;100441.31;;;14.20;69.99
16255;BME280;8235;52.198;9.904;2023-02-22T13:16:39;100447.41;;;14.22;70.21
16255;BME280;8235;52.198;9.904;2023-02-22T13:19:19;100441.94;;;14.23;70.53
16255;BME280;8235;52.198;9.904;2023-02-22T13:21:53;100433.78;;;14.25;70.33
16255;BME280;8235;52.198;9.904;2023-02-22T13:24:25;100433.53;;;14.28;70.16